createdAt,value
2022-08-26T00:02:33.984Z,26.21
2022-08-26T00:07:27.122Z,26.12
2022-08-26T00:11:26.978Z,26.07
2022-08-26T00:12:52.613Z,26.05
2022-08-26T00:18:38.828Z,25.97
2022-08-26T00:21:33.579Z,25.94
2022-08-26T00:25:27.887Z,25.94
2022-08-26T00:26:56.913Z,25.91
2022-08-26T00:28:26.946Z,25.90
2022-08-26T00:30:54.179Z,25.80
2022-08-26T00:35:23.121Z,25.76
2022-08-26T00:38:19.539Z,25.75
2022-08-26T00:41:45.723Z,25.69
2022-08-26T00:43:15.520Z,25.67
2022-08-26T00:45:41.947Z,25.62
2022-08-26T00:47:40.545Z,25.60
2022-08-26T00:49:11.943Z,25.58
2022-08-26T00:51:07.672Z,25.52
2022-08-26T00:52:56.415Z,25.52
2022-08-26T00:58:22.451Z,25.47
2022-08-26T00:59:52.279Z,25.46
2022-08-26T01:02:26.319Z,25.43
2022-08-26T01:05:14.968Z,25.36
2022-08-26T01:07:42.758Z,25.33
2022-08-26T01:09:40.873Z,25.35
2022-08-26T01:12:29.684Z,25.21
2022-08-26T01:13:58.745Z,25.15
2022-08-26T01:17:46.075Z,25.06
2022-08-26T01:19:15.989Z,25.06
2022-08-26T01:21:14.517Z,25.10
2022-08-26T01:29:00.898Z,25.09
2022-08-26T01:32:26.259Z,25.10
2022-08-26T01:34:55.337Z,25.09
2022-08-26T01:36:53.931Z,25.03
2022-08-26T01:45:09.947Z,24.87
2022-08-26T01:50:06.545Z,24.85
2022-08-26T01:51:35.548Z,24.88
2022-08-26T01:53:24.570Z,24.84
2022-08-26T01:54:53.757Z,24.85
2022-08-26T01:56:52.031Z,24.84
2022-08-26T02:00:09.231Z,24.80
2022-08-26T02:05:04.986Z,24.76
2022-08-26T02:12:31.060Z,24.71
2022-08-26T02:18:23.669Z,24.58
2022-08-26T02:22:38.092Z,24.58
2022-08-26T02:24:07.091Z,24.60
2022-08-26T02:31:19.248Z,24.53
2022-08-26T02:32:49.586Z,24.55
2022-08-26T02:34:54.655Z,24.47
2022-08-26T02:36:23.650Z,24.53
2022-08-26T02:40:18.575Z,24.60
2022-08-26T02:43:15.021Z,24.61
2022-08-26T02:44:43.765Z,24.62
2022-08-26T02:49:29.322Z,24.55
2022-08-26T02:53:25.659Z,24.55
2022-08-26T02:55:52.446Z,24.57
2022-08-26T02:58:20.532Z,24.45
2022-08-26T03:02:43.864Z,24.42
2022-08-26T03:07:07.421Z,24.49
2022-08-26T03:12:01.941Z,24.47
2022-08-26T03:14:57.967Z,24.42
2022-08-26T03:19:42.907Z,24.31
2022-08-26T03:23:36.752Z,24.30
2022-08-26T03:25:05.816Z,24.35
2022-08-26T03:27:33.164Z,24.37
2022-08-26T03:29:02.217Z,24.34
2022-08-26T03:34:54.595Z,24.24
2022-08-26T03:45:09.346Z,24.31
2022-08-26T03:53:28.148Z,24.16
2022-08-26T04:02:34.013Z,24.18
2022-08-26T04:05:59.357Z,24.13
2022-08-26T04:09:54.109Z,24.21
2022-08-26T04:18:46.938Z,24.34
2022-08-26T04:22:10.377Z,24.27
2022-08-26T04:30:30.339Z,24.22
2022-08-26T04:33:32.406Z,24.25
2022-08-26T04:34:56.527Z,24.24
2022-08-26T04:40:18.192Z,24.25
2022-08-26T04:48:06.330Z,24.20
2022-08-26T04:51:03.353Z,24.15
2022-08-26T04:55:56.250Z,24.18
2022-08-26T05:01:16.923Z,24.21
2022-08-26T05:02:45.913Z,24.20
2022-08-26T05:07:09.833Z,24.16
2022-08-26T05:11:04.013Z,24.22
2022-08-26T05:14:29.272Z,24.24
2022-08-26T05:16:27.628Z,24.27
2022-08-26T05:24:43.692Z,24.31
2022-08-26T05:28:38.244Z,24.32
2022-08-26T05:37:24.686Z,24.22
2022-08-26T05:42:46.419Z,24.15
2022-08-26T05:47:39.326Z,24.18
2022-08-26T05:50:35.736Z,24.21
2022-08-26T05:55:58.126Z,24.22
2022-08-26T05:58:26.707Z,24.24
2022-08-26T06:05:43.804Z,24.12
2022-08-26T06:08:11.041Z,24.13
2022-08-26T06:13:11.935Z,24.05
2022-08-26T06:14:34.280Z,24.09
2022-08-26T06:16:32.533Z,24.13
2022-08-26T06:18:30.566Z,24.10
2022-08-26T06:19:59.565Z,24.10
2022-08-26T06:24:43.395Z,24.10
2022-08-26T06:26:13.549Z,24.12
2022-08-26T06:29:09.718Z,24.08
2022-08-26T06:30:39.271Z,24.10
2022-08-26T06:32:08.805Z,24.12
2022-08-26T06:36:02.896Z,24.09
2022-08-26T06:39:33.469Z,24.20
2022-08-26T06:46:22.808Z,24.32
2022-08-26T06:51:54.838Z,24.28
2022-08-26T06:53:52.891Z,24.28
2022-08-26T07:11:34.106Z,24.34
2022-08-26T07:13:03.149Z,24.39
2022-08-26T07:16:03.060Z,24.47
2022-08-26T07:17:28.466Z,24.47
2022-08-26T07:19:55.693Z,24.49
2022-08-26T07:22:34.539Z,24.50
2022-08-26T07:25:01.277Z,24.47
2022-08-26T07:26:30.369Z,24.47
2022-08-26T07:28:57.871Z,24.45
2022-08-26T07:31:25.073Z,24.40
2022-08-26T07:36:48.290Z,24.49
2022-08-26T07:38:46.229Z,24.49
2022-08-26T07:42:40.797Z,24.53
2022-08-26T07:45:08.142Z,24.57
2022-08-26T07:47:10.584Z,24.60
2022-08-26T07:49:05.302Z,24.58
2022-08-26T07:52:01.869Z,24.52
2022-08-26T07:55:27.719Z,24.43
2022-08-26T07:57:25.980Z,24.42
2022-08-26T07:59:24.279Z,24.43
2022-08-26T08:02:40.317Z,24.45
2022-08-26T08:06:27.326Z,24.49
2022-08-26T08:08:58.060Z,24.50
2022-08-26T08:12:18.947Z,24.55
2022-08-26T08:14:19.280Z,24.58
2022-08-26T08:16:17.493Z,24.62
2022-08-26T08:23:28.654Z,24.64
2022-08-26T08:28:51.173Z,24.71
2022-08-26T08:30:22.662Z,24.80
2022-08-26T08:31:56.976Z,24.77
2022-08-26T08:35:58.252Z,24.71
2022-08-26T08:38:56.348Z,24.71
2022-08-26T08:41:51.865Z,24.69
2022-08-26T08:47:34.088Z,24.80
2022-08-26T08:57:39.825Z,24.95
2022-08-26T09:01:44.952Z,24.90
2022-08-26T09:05:42.603Z,24.83
2022-08-26T09:07:39.274Z,24.83
2022-08-26T09:12:32.170Z,24.90
2022-08-26T09:16:50.692Z,24.96
2022-08-26T09:21:35.934Z,24.95
2022-08-26T09:23:02.694Z,24.99
2022-08-26T09:27:17.233Z,25.00
2022-08-26T09:30:13.931Z,25.02
2022-08-26T09:32:43.135Z,24.99
2022-08-26T09:36:03.053Z,25.00
2022-08-26T09:38:05.445Z,25.03
2022-08-26T09:42:20.042Z,25.02
2022-08-26T09:46:06.655Z,25.08
2022-08-26T09:57:12.161Z,24.95
2022-08-26T10:00:00.156Z,25.00
2022-08-26T10:12:32.223Z,25.10
2022-08-26T10:16:58.496Z,25.15
2022-08-26T10:18:28.768Z,25.09
2022-08-26T10:21:14.409Z,25.03
2022-08-26T10:26:01.072Z,25.00
2022-08-26T10:31:27.777Z,24.98
2022-08-26T10:33:20.614Z,25.00
2022-08-26T10:37:16.489Z,25.02
2022-08-26T10:43:40.832Z,25.09
2022-08-26T10:45:37.352Z,25.13
2022-08-26T10:47:06.579Z,25.14
2022-08-26T10:48:35.990Z,25.14
2022-08-26T10:53:59.260Z,25.14
2022-08-26T10:57:01.911Z,25.09
2022-08-26T10:58:30.777Z,25.13
2022-08-26T11:02:59.540Z,25.08
2022-08-26T11:04:28.610Z,25.05
2022-08-26T11:11:02.534Z,25.14
2022-08-26T11:12:30.414Z,25.15
2022-08-26T11:17:48.007Z,25.05
2022-08-26T11:19:20.938Z,25.06
2022-08-26T11:21:01.298Z,25.09
2022-08-26T11:22:30.898Z,25.10
2022-08-26T11:23:59.797Z,25.03
2022-08-26T11:27:44.090Z,24.98
2022-08-26T11:30:21.072Z,24.98
2022-08-26T11:32:31.544Z,24.95
2022-08-26T11:34:35.842Z,25.02
2022-08-26T11:37:29.591Z,25.03
2022-08-26T11:48:34.130Z,25.02
2022-08-26T11:50:32.272Z,25.06
2022-08-26T11:54:57.113Z,24.99
2022-08-26T11:59:00.184Z,24.98
2022-08-26T12:02:29.596Z,25.00
2022-08-26T12:09:33.379Z,25.05
2022-08-26T12:18:29.188Z,24.93
2022-08-26T12:20:20.972Z,24.95
2022-08-26T12:21:51.667Z,24.98
2022-08-26T12:25:48.896Z,24.91
2022-08-26T12:27:18.832Z,24.95
2022-08-26T12:31:47.975Z,24.90
2022-08-26T12:33:47.998Z,24.90
2022-08-26T12:35:45.326Z,24.90
2022-08-26T12:42:13.204Z,24.80
2022-08-26T12:44:12.336Z,24.83
2022-08-26T12:46:39.715Z,24.85
2022-08-26T12:48:09.028Z,24.88
2022-08-26T12:51:43.741Z,24.95
2022-08-26T12:54:11.715Z,24.93
2022-08-26T12:58:10.438Z,24.91
2022-08-26T12:59:39.246Z,24.93
2022-08-26T13:01:10.281Z,24.95
2022-08-26T13:03:06.724Z,24.95
2022-08-26T13:08:04.696Z,24.95
2022-08-26T13:17:50.675Z,24.85
2022-08-26T13:21:44.313Z,24.95
2022-08-26T13:23:14.332Z,24.93
2022-08-26T13:27:08.091Z,24.88
2022-08-26T13:31:31.486Z,24.80
2022-08-26T13:33:58.491Z,24.80
2022-08-26T13:36:25.747Z,24.76
2022-08-26T13:38:33.811Z,24.71
2022-08-26T13:39:54.137Z,24.71
2022-08-26T13:41:29.159Z,24.76
2022-08-26T13:43:24.943Z,24.73
2022-08-26T13:44:54.409Z,24.76
2022-08-26T13:47:22.537Z,24.69
2022-08-26T13:48:51.632Z,24.73
2022-08-26T13:51:00.888Z,24.77
2022-08-26T13:52:34.857Z,24.77
2022-08-26T13:59:47.853Z,24.62
2022-08-26T14:18:50.019Z,24.62
2022-08-26T14:23:13.978Z,24.57
2022-08-26T14:27:33.784Z,24.46
2022-08-26T14:33:53.716Z,24.45
2022-08-26T14:39:02.957Z,24.42
2022-08-26T14:41:33.392Z,24.45
2022-08-26T14:45:00.766Z,24.47
2022-08-26T14:46:30.141Z,24.46
2022-08-26T14:56:16.614Z,24.40
2022-08-26T15:03:02.444Z,24.25
2022-08-26T15:13:15.137Z,24.34
2022-08-26T15:17:10.491Z,24.40
2022-08-26T15:19:37.641Z,24.42
2022-08-26T15:21:35.772Z,24.42
2022-08-26T15:23:06.237Z,24.45
2022-08-26T15:27:29.657Z,24.45
2022-08-26T15:29:27.842Z,24.42
2022-08-26T15:30:56.891Z,24.42
2022-08-26T15:33:23.874Z,24.45
2022-08-26T15:35:22.125Z,24.46
2022-08-26T15:36:51.365Z,24.49
2022-08-26T15:41:44.274Z,24.45
2022-08-26T15:51:56.170Z,24.30
2022-08-26T16:01:44.027Z,24.25
2022-08-26T16:04:11.886Z,24.22
2022-08-26T16:07:08.405Z,24.27
2022-08-26T16:09:06.659Z,24.25
2022-08-26T16:10:35.588Z,24.21
2022-08-26T16:12:33.706Z,24.22
2022-08-26T16:24:05.755Z,24.16
2022-08-26T16:31:24.746Z,24.08
2022-08-26T16:34:21.426Z,24.09
2022-08-26T16:38:17.632Z,24.03
2022-08-26T16:50:27.498Z,23.97
2022-08-26T16:54:21.916Z,23.97
2022-08-26T16:56:49.066Z,23.95
2022-08-26T16:59:45.598Z,23.95
2022-08-26T17:01:14.571Z,23.88
2022-08-26T17:02:43.586Z,23.84
2022-08-26T17:06:38.063Z,23.84
2022-08-26T17:10:03.795Z,23.85
2022-08-26T17:17:50.898Z,23.84
2022-08-26T17:22:14.244Z,23.79
2022-08-26T17:24:12.293Z,23.78
2022-08-26T17:26:39.632Z,23.78
2022-08-26T17:30:05.110Z,23.75
2022-08-26T17:35:27.053Z,23.66
2022-08-26T17:45:40.001Z,23.60
2022-08-26T17:52:28.811Z,23.55
2022-08-26T17:56:24.139Z,23.54
2022-08-26T17:58:23.378Z,23.53
2022-08-26T17:59:50.810Z,23.53
2022-08-26T18:09:04.660Z,23.39
2022-08-26T18:13:28.648Z,23.38
2022-08-26T18:16:54.268Z,23.32
2022-08-26T18:18:52.300Z,23.28
2022-08-26T18:21:19.711Z,23.25
2022-08-26T18:23:18.486Z,23.20
2022-08-26T18:25:15.967Z,23.20
2022-08-26T18:26:45.568Z,23.23
2022-08-26T18:28:43.155Z,23.25
2022-08-26T18:30:16.289Z,23.19
2022-08-26T18:31:45.682Z,23.15
2022-08-26T18:33:43.622Z,23.17
2022-08-26T18:35:12.996Z,23.17
2022-08-26T18:39:08.991Z,23.12
2022-08-26T18:47:25.398Z,23.16
2022-08-26T18:51:48.530Z,23.20
2022-08-26T18:53:17.592Z,23.23
2022-08-26T18:57:31.784Z,23.19
2022-08-26T19:03:23.367Z,23.15
2022-08-26T19:14:07.379Z,23.09
2022-08-26T19:17:33.012Z,23.09
2022-08-26T19:19:04.753Z,23.05
2022-08-26T19:22:01.371Z,23.00
2022-08-26T19:23:31.905Z,23.00
2022-08-26T19:27:26.105Z,23.04
2022-08-26T19:39:36.916Z,23.02
2022-08-26T19:41:36.768Z,22.98
2022-08-26T19:47:25.894Z,23.00
2022-08-26T19:53:45.661Z,22.90
2022-08-26T19:59:07.530Z,22.90
2022-08-26T20:02:07.141Z,22.83
2022-08-26T20:07:00.415Z,22.90
2022-08-26T20:09:25.432Z,22.92
2022-08-26T20:13:19.556Z,22.91
2022-08-26T20:15:18.591Z,22.91
2022-08-26T20:17:16.301Z,22.91
2022-08-26T20:18:45.766Z,22.91
2022-08-26T20:20:32.865Z,22.90
2022-08-26T20:32:35.020Z,22.79
2022-08-26T20:35:56.356Z,22.75
2022-08-26T20:39:21.519Z,22.79
2022-08-26T20:41:19.501Z,22.82
2022-08-26T20:46:18.222Z,22.68
2022-08-26T20:49:31.001Z,22.65
2022-08-26T20:58:46.946Z,22.60
2022-08-26T21:04:30.987Z,22.67
2022-08-26T21:06:58.086Z,22.62
2022-08-26T21:10:53.374Z,22.64
2022-08-26T21:12:51.477Z,22.64
2022-08-26T21:19:52.989Z,22.70
2022-08-26T21:21:27.064Z,22.67
2022-08-26T21:26:35.154Z,22.58
2022-08-26T21:34:32.097Z,22.46
2022-08-26T21:36:27.776Z,22.49
2022-08-26T21:38:54.897Z,22.54
2022-08-26T21:42:22.921Z,22.57
2022-08-26T21:56:47.507Z,22.46
2022-08-26T21:58:16.044Z,22.47
2022-08-26T22:00:14.751Z,22.47
2022-08-26T22:02:13.762Z,22.49
2022-08-26T22:03:47.266Z,22.49
2022-08-26T22:05:12.963Z,22.45
2022-08-26T22:09:40.909Z,22.35
2022-08-26T22:13:04.314Z,22.36
2022-08-26T22:17:29.860Z,22.36
2022-08-26T22:22:42.733Z,22.31
2022-08-26T22:28:48.274Z,22.33
2022-08-26T22:30:47.951Z,22.37
2022-08-26T22:35:29.009Z,22.31
2022-08-26T22:40:36.569Z,22.31
2022-08-26T22:43:05.729Z,22.35
2022-08-26T22:49:02.713Z,22.36
2022-08-26T22:51:30.064Z,22.36
2022-08-26T22:57:21.083Z,22.39
2022-08-26T22:59:59.338Z,22.39
2022-08-26T23:01:57.350Z,22.37
2022-08-26T23:11:12.044Z,22.20
2022-08-26T23:13:10.121Z,22.21
2022-08-26T23:16:06.333Z,22.25
2022-08-26T23:18:33.320Z,22.25
2022-08-26T23:24:53.075Z,22.27
2022-08-26T23:28:18.578Z,22.25
2022-08-26T23:32:13.613Z,22.18
2022-08-26T23:36:07.755Z,22.20
2022-08-26T23:37:36.768Z,22.20
2022-08-26T23:39:34.762Z,22.20
2022-08-26T23:44:01.585Z,22.17
2022-08-26T23:45:57.131Z,22.20
2022-08-26T23:54:18.106Z,22.15
2022-08-26T23:56:17.326Z,22.17
2022-08-26T23:58:43.982Z,22.17
